KBTM/BTM METAR and TAF weather

Enter ICAO airport designator
Station Type Date Time Source
KBTM METAR 2020/12/06 00:53 UTC NOAA

KBTM 060053Z AUTO 13005KT 10SM CLR M05/M10 A3031 RMK AO2 SLP341 T10501100


Station Type Date Time Source
KBTM Decoded METAR 2020/12/06 00:53 UTC NOAA

BERT MOONEY AIRPORT, MT, United States (KBTM) 45-58N 112-30W 1688M
Dec 05, 2020 - 07:53 PM EST / 2020.12.06 0053 UTC
Wind: from the SE (130 degrees) at 6 MPH (5 KT):0
Visibility: 10 mile(s):0
Sky conditions: clear
Temperature: 23.0 F (-5.0 C)
Windchill: 15 F (-9 C):1
Dew Point: 14.0 F (-10.0 C)
Relative Humidity: 67%
Pressure (altimeter): 30.31 in. Hg (1026 hPa)
ob: KBTM 060053Z AUTO 13005KT 10SM CLR M05/M10 A3031 RMK AO2 SLP341 T10501100
cycle: 1

Station Type Date Time Source
KBTM TAF 2020/12/05 18:22 UTC NOAA

TAF KBTM 051720Z 0518/0618 19004KT P6SM SKC
FM060100 15005KT P6SM SKC
FM061000 00000KT P6SM SKC

Example: see airport list